White Mountain Summit Weather observations

Data are for 10 minute period ending at time listed.
 Day   Time   Solar   Ave.   Ave.  Ave.  Vector    Max.    Baro.  
  of    of     Rad.   Air    Rel.  Wind   Wind     Wind   Press.  
Year   Day            Temp.  Hum.  Speed  Dir.     Gust           
2018   (PST)   W/m2    F      %     mph   deg.      mph     mb.   
-------------------------------------------------------------------
  15   21:20    0.0    21   63.5    28    189.8    35.3   601.6 
  15   21:30    0.0    21   66.2    26    190.5    30.6   601.6 
  15   21:40    0.0    21   66.8    28    189.0    33.0   601.6 
  15   21:50    0.0    20   58.1    30    172.5    35.3   601.7 
  15   22:00    0.0    20   54.8    35    175.4    40.0   601.7 
  15   22:10    0.0    20   55.1    39    173.0    44.7   601.6 
  15   22:20    0.0    20   56.1    41    172.8    44.7   601.7 
  15   22:30    0.0    20   57.2    40    171.8    44.7   601.7 
  15   22:40    0.0    20   58.6    39    172.7    44.7   601.7 
  15   22:50    0.0    20   57.7    40    177.4    44.7   601.7 
  15   23:00    0.0    19   58.7    44    176.5    47.1   601.6 
  15   23:10    0.0    20   58.6    45    174.3    49.4   601.5 
  15   23:20    0.0    19   58.6    48    174.1    51.8   601.5 
  15   23:30    0.0    19   59.7    44    172.2    49.4   601.5 
  15   23:40    0.0    20   63.3    37    173.0    42.4   601.5 
  15   23:50    0.0    20   63.9    38    172.0    42.4   601.4 
  16    0:00    0.0    20   62.2    35    172.8    40.0   601.3 
  16    0:10    0.0    19   60.3    36    175.5    40.0   601.3 
  16    0:20    0.0    19   60.0    37    173.5    42.4   601.2 
  16    0:30    0.0    19   59.7    37    179.9    42.4   601.1 
  16    0:40    0.0    19   59.5    42    174.8    44.7   600.9 
  16    0:50    0.0    19   60.9    46    173.8    49.4   600.8 
  16    1:00    0.0    19   61.4    47    173.0    49.4   600.8 
  16    1:10    0.0    19   61.3    48    173.2    51.8   600.8 
  16    1:20    0.0    19   62.4    48    173.2    54.1   600.7 
  16    1:30    0.0    19   64.3    52    174.3    61.2   600.6 
  16    1:40    0.0    19   65.5    55    174.0    65.9   600.5 
  16    1:50    0.0    19   67.1    59    176.3    72.9   600.5 
  16    2:00    0.0    19   68.3    57    180.3    75.3   600.5 
  16    2:10    0.0    19   69.9    62    180.7    75.3   600.3 
  16    2:20    0.0    19   70.4    67    187.2    77.7   600.1 
  16    2:30    0.0    19   69.7    60    182.3    70.6   600.3 
  16    2:40    0.0    19   69.3    57    181.5    63.5   600.4 
  16    2:50    0.0    18   69.0    57    185.3    63.5   600.4 
  16    3:00    0.0    18   70.3    60    182.0    68.2   600.4 
  16    3:10    0.0    18   71.4    61    182.8    68.2   600.3 
  16    3:20    0.0    18   71.8    53    179.2    61.2   600.3 
  16    3:30    0.0    18   72.2    49    183.0    56.5   600.3 
  16    3:40    0.0    18   72.7    50    180.0    58.8   600.4 
  16    3:50    0.0    17   71.4    48    174.2    51.8   600.5 
  16    4:00    0.0    17   71.6    53    172.2    58.8   600.3 
  16    4:10    0.0    17   72.1    56    172.1    61.2   600.0 
  16    4:20    0.0    17   73.0    58    177.2    65.9   599.9 
  16    4:30    0.0    18   71.9    63    177.4    72.9   599.7 
  16    4:40    0.0    18   71.3    59    175.6    68.2   599.9 
  16    4:50    0.0    18   70.1    52    179.8    58.8   600.0 
  16    5:00    0.0    18   69.4    52    178.4    58.8   600.1 
  16    5:10    0.0    18   71.2    44    182.3    56.5   600.4 
  16    5:20    0.0    18   72.1    33    173.7    42.4   600.6 
  16    5:30    0.0    18   72.6    35    175.1    42.4   600.6 
  16    5:40    0.0    18   72.9    39    178.2    49.4   600.6 
  16    5:50    0.0    18   73.3    47    177.7    58.8   600.4 
  16    6:00    0.0    17   74.3    42    182.4    61.2   600.6 
  16    6:10    0.0    17   74.7    36    189.5    44.7   600.7 
  16    6:20    0.0    17   75.3    42    184.1    51.8   600.5 
  16    6:30    0.0    16   76.6    48    176.6    56.5   600.5 
  16    6:40    0.0    17   76.3    53    178.3    61.2   600.3 
  16    6:50    0.0    17   74.3    47    173.4    54.1   600.5 
  16    7:00    0.0    16   75.9    51    173.5    56.5   600.4 
  16    7:10    0.0    16   76.5    54    177.0    58.8   600.4 
  16    7:20    0.0    16   76.6    55    176.9    61.2   600.4 
  16    7:30    0.0    16   76.8    56    178.6    63.5   600.3 
  16    7:40    0.0    16   77.2    57    175.6    63.5   600.2 
  16    7:50    0.0    16   77.3    56    176.4    63.5   600.3 
  16    8:00    0.0    16   76.9    51    173.3    58.8   600.6 
  16    8:10    0.0    16   83.8    51    175.8    56.5   600.6 
  16    8:20    0.0    16   84.1    51    173.9    56.5   600.6 
  16    8:30    0.0    16   83.6    47    174.6    54.1   600.8 
  16    8:40    0.0    16   84.7    46    172.7    54.1   600.8 
  16    8:50    0.0    17   85.2    37    179.0    44.7   601.2 
  16    9:00    0.0    17   84.4    26    185.4    35.3   601.5 
  16    9:10    0.0    17   83.7    21    208.8    30.6   601.7 
  16    9:20    0.0    17   83.0    17    204.6    21.2   601.7 
  16    9:30    0.0    17   84.1    20    204.1    30.6   601.5 
  16    9:40    0.0    20   80.3    27    204.0    30.6   601.4 
  16    9:50    0.0    20   78.0    23    207.4    30.6   601.5 
  16   10:00    0.0    22   73.0    20    196.0    28.2   601.7 
  16   10:10    0.0    23   69.8    22    194.8    28.2   602.0 
  16   10:20    0.0    21   75.9    31    175.0    37.7   601.9 
  16   10:30    0.0    21   74.4    33    194.6    44.7   601.6 
  16   10:40    0.0    22   72.4    29    196.0    42.4   601.7 
  16   10:50    0.0    22   71.2    23    204.8    33.0   601.8 
  16   11:00    0.0    22   70.7    27    185.5    33.0   601.7 
  16   11:10    0.0    21   72.1    30    179.7    37.7   601.5 
  16   11:20    0.0    20   79.0    35    189.2    42.4   601.5 
  16   11:30    0.0    20   81.5    34    180.3    40.0   601.4 
  16   11:40    0.0    21   80.9    31    191.5    40.0   601.4 
  16   11:50    0.0    21   79.3    26    182.9    30.6   601.3 
  16   12:00    0.0    24   72.6    20    187.5    25.9   601.4 
  16   12:10    0.0    26   67.2    22    184.5    28.2   601.3 
  16   12:20    0.0    25   68.2    26    185.1    30.6   601.2 
  16   12:30    0.0    24   70.5    27    191.7    33.0   601.2 
  16   12:40    0.0    24   72.5    32    182.4    40.0   600.9 
  16   12:50    0.0    23   74.1    34    186.4    40.0   600.9 
  16   13:00    0.0    22   74.5    30    183.4    40.0   600.9 
  16   13:10    0.0    22   72.9    33    184.9    40.0   600.9 
  16   13:20    0.0    21   76.8    34    193.1    40.0   600.9 
  16   13:30    0.0    21   74.4    38    184.0    42.4   600.7 
  16   13:40    0.0    23   70.2    42    174.0    47.1   600.6 
  16   13:50    0.0    24   65.7    42    172.4    47.1   600.7 
  16   14:00    0.0    23   65.2    41    174.0    47.1   600.8 
  16   14:10    0.0    23   61.3    44    176.2    51.8   600.8 
  16   14:20    0.0    23   60.4    40    195.4    47.1   600.9 
  16   14:30    0.0    23   63.4    40    173.4    44.7   600.9 
  16   14:40    0.0    23   64.4    37    193.4    44.7   601.0 
  16   14:50    0.0    23   64.5    36    188.9    42.4   601.0 
  16   15:00    0.0    24   66.4    32    190.6    40.0   601.1 
  16   15:10    0.0    24   70.0    32    200.6    40.0   601.1 
  16   15:20    0.0    23   72.9    31    185.8    37.7   601.1 
  16   15:30    0.0    22   72.6    35    190.1    42.4   601.0 
  16   15:40    0.0    22   73.6    38    175.3    44.7   600.9 
  16   15:50    0.0    22   69.3    39    183.6    44.7   600.9 
  16   16:00    0.0    22   67.4    40    184.6    47.1   601.0 
  16   16:10    0.0    21   69.5    39    172.9    44.7   601.0 
  16   16:20    0.0    21   71.8    34    206.2    40.0   601.1 
  16   16:30    0.0    20   71.5    36    195.3    40.0   601.1 
  16   16:40    0.0    19   70.7    36    196.4    40.0   601.0 
  16   16:50    0.0    19   73.3    35    179.7    40.0   601.1 
  16   17:00    0.0    19   75.7    41    172.0    44.7   601.0 
  16   17:10    0.0    18   79.0    38    172.1    42.4   601.1 
  16   17:20    0.0    18   81.5    40    171.3    47.1   601.0 
  16   17:30    0.0    17   83.2    43    172.5    47.1   601.0 
  16   17:40    0.0    17   82.2    42    172.6    47.1   601.1 
  16   17:50    0.0    18   78.5    41    177.5    47.1   601.1 
  16   18:00    0.0    17   78.7    43    195.7    49.4   601.1 
  16   18:10    0.0    17   78.3    36    203.2    44.7   601.2 
  16   18:20    0.0    17   77.4    39    182.4    42.4   601.3 
  16   18:30    0.0    17   76.5    41    181.4    49.4   601.5 
  16   18:40    0.0    17   80.2    44    185.2    49.4   601.3 
  16   18:50    0.0    17   76.7    45    198.9    49.4   601.3 
  16   19:00    0.0    17   75.6    45    191.9    51.8   601.4 
  16   19:10    0.0    17   76.1    50    180.6    56.5   601.3 
  16   19:20    0.0    18   76.8    44    193.1    49.4   601.4 
  16   19:30    0.0    18   77.7    43    202.5    49.4   601.4 
  16   19:40    0.0    18   78.6    47    184.1    51.8   601.3 
  16   19:50    0.0    18   79.3    37    199.0    49.4   601.5 
  16   20:00    0.0    18   79.5    37    196.0    44.7   601.6 
  16   20:10    0.0    18   80.3    45    200.8    51.8   601.4 
  16   20:20    0.0    18   81.3    46    205.6    51.8   601.4 
  16   20:30    0.0    17   82.4    44    195.2    51.8   601.4 
  16   20:40    0.0    17   83.0    50    184.4    56.5   601.4 
  16   20:50    0.0    17   82.5    51    189.8    58.8   601.3 
  16   21:00    0.0    17   82.7    51    200.0    56.5   601.3 
  16   21:10    0.0    17   85.0    41    200.5    47.1   601.6 

Return to White Mountain graphs page.


Western Regional Climate Center,wrcc@dri.edu